createdAt,value
2022-10-23T00:02:12.809Z,12.19
2022-10-23T00:04:43.785Z,11.80
2022-10-23T00:07:18.704Z,11.91
2022-10-23T00:09:48.036Z,11.64
2022-10-23T00:12:23.040Z,11.77
2022-10-23T00:14:53.744Z,12.00
2022-10-23T00:17:26.922Z,11.96
2022-10-23T00:19:55.792Z,11.73
2022-10-23T00:22:24.914Z,11.76
2022-10-23T00:24:53.496Z,12.06
2022-10-23T00:27:21.599Z,12.11
2022-10-23T00:29:50.350Z,12.20
2022-10-23T00:32:20.742Z,11.81
2022-10-23T00:34:51.418Z,11.81
2022-10-23T00:37:21.035Z,11.80
2022-10-23T00:39:51.097Z,11.95
2022-10-23T00:42:25.457Z,11.91
2022-10-23T00:45:22.188Z,11.43
2022-10-23T00:47:52.512Z,11.47
2022-10-23T00:50:26.354Z,11.77
2022-10-23T00:52:58.141Z,11.43
2022-10-23T00:55:31.869Z,11.50
2022-10-23T00:58:04.879Z,11.62
2022-10-23T01:00:45.021Z,11.61
2022-10-23T01:03:17.882Z,11.50
2022-10-23T01:05:55.029Z,11.33
2022-10-23T01:08:31.411Z,11.42
2022-10-23T01:11:07.000Z,11.63
2022-10-23T01:13:52.720Z,11.62
2022-10-23T01:16:30.971Z,11.44
2022-10-23T01:19:11.449Z,11.34
2022-10-23T01:22:02.509Z,11.18
2022-10-23T01:24:45.269Z,11.59
2022-10-23T01:27:29.058Z,11.58
2022-10-23T01:30:08.463Z,11.36
2022-10-23T01:32:48.305Z,11.45
2022-10-23T01:35:23.499Z,11.34
2022-10-23T01:38:02.706Z,11.58
2022-10-23T01:40:37.338Z,11.56
2022-10-23T01:43:13.140Z,11.67
2022-10-23T01:45:47.773Z,11.26
2022-10-23T01:48:26.533Z,11.65
2022-10-23T01:50:59.171Z,11.69
2022-10-23T01:53:35.455Z,11.43
2022-10-23T01:56:08.619Z,11.28
2022-10-23T01:58:40.937Z,11.57
2022-10-23T02:01:12.540Z,11.62
2022-10-23T02:03:43.135Z,11.57
2022-10-23T02:06:11.570Z,11.46
2022-10-23T02:08:39.721Z,11.65
2022-10-23T02:11:11.348Z,11.44
2022-10-23T02:13:48.611Z,11.64
2022-10-23T02:16:23.961Z,11.46
2022-10-23T02:19:02.029Z,11.59
2022-10-23T02:21:34.551Z,11.58
2022-10-23T02:24:06.788Z,11.63
2022-10-23T02:26:43.189Z,11.46
2022-10-23T02:29:21.708Z,11.39
2022-10-23T02:31:50.393Z,11.57
2022-10-23T02:34:19.827Z,11.25
2022-10-23T02:36:49.972Z,11.37
2022-10-23T02:39:18.198Z,11.56
2022-10-23T02:41:53.037Z,11.69
2022-10-23T02:44:37.733Z,11.31
2022-10-23T02:47:18.988Z,11.61
2022-10-23T02:50:00.074Z,11.63
2022-10-23T02:52:37.749Z,11.19
2022-10-23T02:55:22.232Z,11.28
2022-10-23T02:57:58.425Z,11.23
2022-10-23T03:00:34.730Z,11.36
2022-10-23T03:03:11.376Z,11.34
2022-10-23T03:05:42.024Z,11.32
2022-10-23T03:08:11.658Z,11.79
2022-10-23T03:10:40.298Z,11.81
2022-10-23T03:13:09.174Z,11.77
2022-10-23T03:15:39.087Z,11.59
2022-10-23T03:18:10.014Z,11.41
2022-10-23T03:20:41.494Z,11.70
2022-10-23T03:23:16.964Z,11.76
2022-10-23T03:25:45.907Z,11.51
2022-10-23T03:28:17.465Z,11.73
2022-10-23T03:30:48.146Z,11.29
2022-10-23T03:33:16.890Z,11.49
2022-10-23T03:35:49.581Z,11.70
2022-10-23T03:38:18.258Z,11.36
2022-10-23T03:40:47.527Z,11.37
2022-10-23T03:43:21.957Z,11.49
2022-10-23T03:45:58.240Z,11.30
2022-10-23T03:48:26.594Z,11.25
2022-10-23T03:50:55.479Z,11.62
2022-10-23T03:53:24.593Z,11.45
2022-10-23T03:55:53.835Z,11.13
2022-10-23T03:58:26.069Z,11.48
2022-10-23T04:00:57.721Z,11.05
2022-10-23T04:03:26.164Z,11.25
2022-10-23T04:05:59.088Z,11.29
2022-10-23T04:08:28.257Z,11.47
2022-10-23T04:10:59.762Z,11.60
2022-10-23T04:13:28.957Z,11.89
2022-10-23T04:16:01.533Z,11.72
2022-10-23T04:18:29.691Z,11.79
2022-10-23T04:20:58.385Z,11.71
2022-10-23T04:23:28.839Z,11.85
2022-10-23T04:26:00.883Z,11.52
2022-10-23T04:28:32.760Z,11.69
2022-10-23T04:31:04.313Z,11.65
2022-10-23T04:33:33.058Z,11.55
2022-10-23T04:36:01.924Z,11.64
2022-10-23T04:38:35.701Z,11.54
2022-10-23T04:41:07.215Z,11.30
2022-10-23T04:43:39.523Z,11.40
2022-10-23T04:46:09.685Z,11.43
2022-10-23T04:48:38.510Z,11.60
2022-10-23T04:51:11.024Z,11.57
2022-10-23T04:53:42.338Z,11.58
2022-10-23T04:56:15.171Z,11.29
2022-10-23T04:58:46.927Z,11.55
2022-10-23T05:01:17.107Z,11.43
2022-10-23T05:03:45.703Z,11.52
2022-10-23T05:06:14.521Z,11.26
2022-10-23T05:08:48.888Z,11.40
2022-10-23T05:11:21.325Z,11.40
2022-10-23T05:13:53.779Z,11.16
2022-10-23T05:16:37.293Z,11.25
2022-10-23T05:19:09.376Z,11.28
2022-10-23T05:21:40.521Z,11.31
2022-10-23T05:24:10.112Z,10.93
2022-10-23T05:26:49.258Z,11.07
2022-10-23T05:29:21.625Z,10.90
2022-10-23T05:31:56.711Z,11.14
2022-10-23T05:34:36.055Z,11.06
2022-10-23T05:37:13.869Z,10.88
2022-10-23T05:39:43.391Z,10.96
2022-10-23T05:42:14.033Z,10.96
2022-10-23T05:44:43.846Z,11.20
2022-10-23T05:47:13.877Z,10.90
2022-10-23T05:49:46.024Z,11.11
2022-10-23T05:52:15.522Z,10.84
2022-10-23T05:54:43.676Z,11.01
2022-10-23T05:57:11.490Z,10.96
2022-10-23T05:59:39.403Z,10.99
2022-10-23T06:02:07.237Z,11.02
2022-10-23T06:04:36.757Z,10.97
2022-10-23T06:07:05.093Z,10.93
2022-10-23T06:09:33.131Z,10.94
2022-10-23T06:12:02.384Z,11.09
2022-10-23T06:14:30.332Z,11.11
2022-10-23T06:16:58.184Z,10.95
2022-10-23T06:19:26.571Z,10.94
2022-10-23T06:22:00.370Z,11.20
2022-10-23T06:24:29.349Z,10.74
2022-10-23T06:26:57.434Z,11.09
2022-10-23T06:29:25.197Z,11.08
2022-10-23T06:31:52.955Z,11.31
2022-10-23T06:34:20.673Z,11.13
2022-10-23T06:36:48.416Z,11.27
2022-10-23T06:39:17.518Z,11.30
2022-10-23T06:41:45.432Z,11.47
2022-10-23T06:44:13.155Z,11.53
2022-10-23T06:46:40.903Z,11.73
2022-10-23T06:49:08.715Z,11.74
2022-10-23T06:51:36.555Z,11.57
2022-10-23T06:54:04.409Z,11.82
2022-10-23T06:56:35.066Z,11.74
2022-10-23T06:59:03.127Z,11.70
2022-10-23T07:01:30.984Z,11.82
2022-10-23T07:04:00.046Z,11.86
2022-10-23T07:06:27.969Z,11.94
2022-10-23T07:08:59.971Z,12.09
2022-10-23T07:11:27.831Z,12.01
2022-10-23T07:14:01.824Z,12.00
2022-10-23T07:16:30.250Z,12.07
2022-10-23T07:19:01.468Z,12.11
2022-10-23T07:21:30.922Z,12.19
2022-10-23T07:23:59.676Z,12.11
2022-10-23T07:26:27.512Z,12.39
2022-10-23T07:28:55.889Z,12.32
2022-10-23T07:31:28.196Z,12.45
2022-10-23T07:33:56.607Z,12.38
2022-10-23T07:36:24.713Z,12.47
2022-10-23T07:38:53.603Z,12.66
2022-10-23T07:41:21.540Z,12.38
2022-10-23T07:43:49.445Z,12.52
2022-10-23T07:46:17.537Z,12.93
2022-10-23T07:48:49.219Z,12.86
2022-10-23T07:51:18.532Z,12.83
2022-10-23T07:53:47.066Z,12.92
2022-10-23T07:56:17.070Z,12.94
2022-10-23T07:58:49.183Z,13.20
2022-10-23T08:01:21.588Z,13.32
2022-10-23T08:03:53.544Z,13.65
2022-10-23T08:06:24.724Z,13.56
2022-10-23T08:08:56.122Z,13.65
2022-10-23T08:11:28.180Z,13.44
2022-10-23T08:14:00.132Z,13.90
2022-10-23T08:16:29.446Z,13.55
2022-10-23T08:19:00.146Z,13.63
2022-10-23T08:21:28.994Z,14.14
2022-10-23T08:24:01.672Z,14.22
2022-10-23T08:26:30.773Z,13.89
2022-10-23T08:29:03.016Z,14.31
2022-10-23T08:31:31.241Z,14.17
2022-10-23T08:34:05.609Z,14.39
2022-10-23T08:36:38.585Z,14.37
2022-10-23T08:39:08.157Z,14.62
2022-10-23T08:41:38.107Z,14.92
2022-10-23T08:44:18.479Z,15.24
2022-10-23T08:46:50.947Z,15.04
2022-10-23T08:49:42.388Z,14.96
2022-10-23T08:52:18.419Z,15.02
2022-10-23T08:55:03.396Z,15.20
2022-10-23T08:57:42.870Z,15.32
2022-10-23T09:00:16.971Z,15.56
2022-10-23T09:02:48.164Z,15.62
2022-10-23T09:05:29.649Z,15.96
2022-10-23T09:08:09.471Z,15.87
2022-10-23T09:10:58.223Z,15.95
2022-10-23T09:13:41.986Z,16.05
2022-10-23T09:16:25.461Z,16.39
2022-10-23T09:19:00.980Z,16.21
2022-10-23T09:21:31.130Z,16.19
2022-10-23T09:24:01.423Z,16.51
2022-10-23T09:26:33.370Z,16.96
2022-10-23T09:29:15.674Z,16.76
2022-10-23T09:31:50.600Z,16.85
2022-10-23T09:34:22.163Z,16.69
2022-10-23T09:36:56.834Z,16.51
2022-10-23T09:39:30.684Z,17.06
2022-10-23T09:42:02.864Z,16.89
2022-10-23T09:44:33.863Z,16.93
2022-10-23T09:47:11.366Z,17.38
2022-10-23T09:49:48.378Z,17.09
2022-10-23T09:52:35.779Z,17.61
2022-10-23T09:55:20.724Z,18.10
2022-10-23T09:57:48.999Z,18.05
2022-10-23T10:00:19.668Z,18.19
2022-10-23T10:02:58.152Z,17.97
2022-10-23T10:05:28.436Z,17.79
2022-10-23T10:08:04.656Z,18.63
2022-10-23T10:10:39.093Z,19.17
2022-10-23T10:13:15.453Z,18.36
2022-10-23T10:15:52.062Z,18.56
2022-10-23T10:18:27.489Z,18.40
2022-10-23T10:21:17.885Z,18.68
2022-10-23T10:23:50.999Z,18.94
2022-10-23T10:26:31.636Z,19.24
2022-10-23T10:29:09.043Z,19.48
2022-10-23T10:31:50.663Z,19.63
2022-10-23T10:34:29.704Z,19.12
2022-10-23T10:37:03.053Z,19.08
2022-10-23T10:39:43.299Z,19.24
2022-10-23T10:42:43.397Z,19.60
2022-10-23T10:45:27.359Z,19.59
2022-10-23T10:48:16.012Z,19.60
2022-10-23T10:50:48.884Z,19.51
2022-10-23T10:53:25.427Z,19.61
2022-10-23T10:55:56.674Z,19.66
2022-10-23T10:58:35.481Z,19.32
2022-10-23T11:01:07.771Z,19.27
2022-10-23T11:03:42.427Z,18.77
2022-10-23T11:06:16.025Z,18.97
2022-10-23T11:08:56.381Z,18.24
2022-10-23T11:11:33.296Z,18.46
2022-10-23T11:14:01.427Z,18.42
2022-10-23T11:16:33.614Z,18.45
2022-10-23T11:19:11.407Z,18.48
2022-10-23T11:21:45.973Z,18.60
2022-10-23T11:24:57.260Z,18.56
2022-10-23T11:28:00.535Z,18.85
2022-10-23T11:30:40.421Z,19.60
2022-10-23T11:33:33.483Z,19.81
2022-10-23T11:36:18.125Z,20.16
2022-10-23T11:38:48.710Z,20.33
2022-10-23T11:41:27.059Z,19.84
2022-10-23T11:44:01.994Z,19.92
2022-10-23T11:46:34.071Z,20.09
2022-10-23T11:49:24.671Z,20.48
2022-10-23T11:52:05.636Z,20.88
2022-10-23T11:57:24.546Z,20.68
2022-10-23T11:59:57.600Z,20.43
2022-10-23T12:02:32.302Z,20.50
2022-10-23T12:05:06.431Z,20.23
2022-10-23T12:07:42.691Z,20.77
2022-10-23T12:10:31.670Z,21.32
2022-10-23T12:13:32.481Z,21.15
2022-10-23T12:16:02.704Z,21.32
2022-10-23T12:18:36.670Z,20.99
2022-10-23T12:21:06.304Z,20.89
2022-10-23T12:23:51.827Z,21.38
2022-10-23T12:26:50.619Z,21.35
2022-10-23T12:29:29.062Z,21.33
2022-10-23T12:32:09.206Z,20.87
2022-10-23T12:34:49.955Z,20.74
2022-10-23T12:37:59.407Z,20.79
2022-10-23T12:40:32.610Z,21.05
2022-10-23T12:43:02.987Z,21.04
2022-10-23T12:45:34.333Z,21.45
2022-10-23T12:48:04.181Z,21.14
2022-10-23T12:50:37.207Z,21.23
2022-10-23T12:53:18.105Z,20.99
2022-10-23T12:55:57.324Z,21.39
2022-10-23T12:58:27.591Z,21.57
2022-10-23T13:00:58.185Z,21.25
2022-10-23T13:03:30.167Z,21.55
2022-10-23T13:05:59.849Z,21.62
2022-10-23T13:08:36.007Z,21.74
2022-10-23T13:11:05.888Z,21.25
2022-10-23T13:13:33.869Z,21.39
2022-10-23T13:16:01.767Z,21.53
2022-10-23T13:18:42.361Z,21.54
2022-10-23T13:21:18.032Z,21.48
2022-10-23T13:23:46.876Z,21.73
2022-10-23T13:26:34.119Z,21.90
2022-10-23T13:29:07.424Z,22.07
2022-10-23T13:31:37.765Z,22.20
2022-10-23T13:34:28.063Z,22.26
2022-10-23T13:36:59.377Z,22.28
2022-10-23T13:39:29.835Z,22.63
2022-10-23T13:42:01.212Z,22.34
2022-10-23T13:44:29.076Z,22.08
2022-10-23T13:46:57.472Z,22.18
2022-10-23T13:49:26.786Z,21.88
2022-10-23T13:51:56.276Z,21.84
2022-10-23T13:56:59.210Z,22.07
2022-10-23T13:59:27.514Z,21.94
2022-10-23T14:01:55.801Z,21.52
2022-10-23T14:04:23.977Z,21.94
2022-10-23T14:06:58.547Z,21.86
2022-10-23T14:09:26.837Z,21.69
2022-10-23T14:11:54.798Z,21.33
2022-10-23T14:14:22.640Z,21.55
2022-10-23T14:16:52.700Z,21.51
2022-10-23T14:19:20.610Z,21.58
2022-10-23T14:21:48.601Z,21.59
2022-10-23T14:24:17.877Z,21.54
2022-10-23T14:26:45.693Z,21.35
2022-10-23T14:29:21.340Z,21.51
2022-10-23T14:31:51.025Z,21.09
2022-10-23T14:34:18.892Z,21.41
2022-10-23T14:36:56.759Z,21.31
2022-10-23T14:39:33.469Z,21.24
2022-10-23T14:42:01.722Z,21.43
2022-10-23T14:44:29.671Z,21.42
2022-10-23T14:46:58.577Z,21.44
2022-10-23T14:49:26.693Z,21.25
2022-10-23T14:51:54.615Z,21.16
2022-10-23T14:54:22.448Z,21.10
2022-10-23T14:56:51.623Z,20.97
2022-10-23T14:59:19.471Z,21.10
2022-10-23T15:01:48.423Z,20.95
2022-10-23T15:04:17.109Z,21.02
2022-10-23T15:06:46.380Z,20.94
2022-10-23T15:09:14.439Z,20.84
2022-10-23T15:11:42.478Z,20.73
2022-10-23T15:14:11.675Z,20.64
2022-10-23T15:16:42.011Z,20.66
2022-10-23T15:19:13.588Z,20.66
2022-10-23T15:21:45.320Z,20.51
2022-10-23T15:24:13.277Z,20.39
2022-10-23T15:26:43.067Z,20.39
2022-10-23T15:29:14.468Z,20.32
2022-10-23T15:31:49.460Z,20.22
2022-10-23T15:34:20.214Z,20.19
2022-10-23T15:36:49.320Z,20.05
2022-10-23T15:39:19.318Z,20.05
2022-10-23T15:41:48.070Z,19.78
2022-10-23T15:44:19.672Z,19.90
2022-10-23T15:46:48.309Z,19.81
2022-10-23T15:49:16.916Z,19.90
2022-10-23T15:51:45.742Z,19.69
2022-10-23T15:54:19.063Z,19.69
2022-10-23T15:56:52.309Z,19.59
2022-10-23T15:59:24.069Z,19.59
2022-10-23T16:01:52.965Z,19.48
2022-10-23T16:04:21.123Z,19.46
2022-10-23T16:06:49.389Z,19.26
2022-10-23T16:09:17.825Z,19.21
2022-10-23T16:11:45.749Z,19.28
2022-10-23T16:14:15.795Z,19.44
2022-10-23T16:16:45.574Z,19.29
2022-10-23T16:19:14.151Z,19.29
2022-10-23T16:21:42.705Z,19.40
2022-10-23T16:24:11.102Z,19.33
2022-10-23T16:26:39.538Z,19.25
2022-10-23T16:29:09.703Z,19.28
2022-10-23T16:31:37.775Z,19.32
2022-10-23T16:34:08.139Z,19.30
2022-10-23T16:36:38.922Z,19.37
2022-10-23T16:39:08.189Z,19.45
2022-10-23T16:41:37.630Z,19.31
2022-10-23T16:44:06.103Z,19.34
2022-10-23T16:46:35.416Z,19.49
2022-10-23T16:49:04.211Z,19.43
2022-10-23T16:51:34.450Z,19.43
2022-10-23T16:54:02.598Z,19.45
2022-10-23T16:56:31.479Z,19.36
2022-10-23T16:59:00.558Z,19.20
2022-10-23T17:01:31.122Z,19.24
2022-10-23T17:03:59.441Z,19.33
2022-10-23T17:06:30.146Z,19.09
2022-10-23T17:09:00.814Z,19.06
2022-10-23T17:11:30.441Z,19.08
2022-10-23T17:14:00.990Z,18.98
2022-10-23T17:16:30.580Z,18.98
2022-10-23T17:18:59.177Z,18.89
2022-10-23T17:21:27.316Z,18.87
2022-10-23T17:23:55.282Z,18.82
2022-10-23T17:26:24.622Z,18.68
2022-10-23T17:28:52.557Z,18.68
2022-10-23T17:31:22.716Z,18.69
2022-10-23T17:33:52.996Z,18.30
2022-10-23T17:36:22.352Z,18.33
2022-10-23T17:38:50.671Z,18.11
2022-10-23T17:41:20.777Z,18.01
2022-10-23T17:43:50.461Z,18.05
2022-10-23T17:46:19.589Z,18.18
2022-10-23T17:48:47.514Z,18.36
2022-10-23T17:51:17.337Z,18.50
2022-10-23T17:53:47.731Z,18.51
2022-10-23T17:56:22.426Z,18.18
2022-10-23T17:58:52.529Z,17.71
2022-10-23T18:01:33.249Z,17.49
2022-10-23T18:04:05.375Z,17.57
2022-10-23T18:06:35.439Z,17.50
2022-10-23T18:09:05.200Z,17.47
2022-10-23T18:11:36.359Z,17.51
2022-10-23T18:14:07.293Z,17.49
2022-10-23T18:16:37.158Z,17.50
2022-10-23T18:19:06.115Z,17.51
2022-10-23T18:21:34.761Z,17.51
2022-10-23T18:24:03.369Z,17.29
2022-10-23T18:26:34.902Z,17.37
2022-10-23T18:29:04.315Z,17.45
2022-10-23T18:31:33.775Z,17.42
2022-10-23T18:34:04.216Z,17.46
2022-10-23T18:36:34.657Z,17.40
2022-10-23T18:39:02.960Z,17.40
2022-10-23T18:41:34.597Z,17.41
2022-10-23T18:44:03.143Z,17.39
2022-10-23T18:46:31.380Z,17.30
2022-10-23T18:49:01.193Z,17.41
2022-10-23T18:51:32.907Z,17.10
2022-10-23T18:54:03.058Z,17.49
2022-10-23T18:56:34.291Z,17.33
2022-10-23T18:59:05.365Z,17.51
2022-10-23T19:01:33.935Z,17.44
2022-10-23T19:04:04.968Z,17.33
2022-10-23T19:06:38.648Z,17.41
2022-10-23T19:09:09.647Z,17.35
2022-10-23T19:11:38.197Z,17.38
2022-10-23T19:14:07.040Z,17.26
2022-10-23T19:16:39.159Z,17.19
2022-10-23T19:19:14.371Z,17.07
2022-10-23T19:21:43.843Z,17.17
2022-10-23T19:24:16.584Z,17.06
2022-10-23T19:26:46.342Z,16.77
2022-10-23T19:29:20.063Z,16.81
2022-10-23T19:31:49.980Z,16.98
2022-10-23T19:34:20.647Z,16.65
2022-10-23T19:36:48.920Z,16.82
2022-10-23T19:39:18.017Z,16.69
2022-10-23T19:41:46.780Z,16.83
2022-10-23T19:44:15.970Z,16.58
2022-10-23T19:46:45.103Z,16.89
2022-10-23T19:49:13.204Z,16.56
2022-10-23T19:51:50.395Z,16.72
2022-10-23T19:54:20.701Z,17.10
2022-10-23T19:56:49.265Z,17.01
2022-10-23T19:59:18.351Z,16.95
2022-10-23T20:01:48.917Z,16.87
2022-10-23T20:04:18.001Z,16.87
2022-10-23T20:06:48.829Z,16.89
2022-10-23T20:09:16.945Z,16.66
2022-10-23T20:11:45.539Z,16.96
2022-10-23T20:14:15.450Z,16.77
2022-10-23T20:16:45.922Z,16.74
2022-10-23T20:19:15.478Z,16.73
2022-10-23T20:21:45.989Z,16.70
2022-10-23T20:24:17.890Z,16.59
2022-10-23T20:26:50.045Z,16.77
2022-10-23T20:29:18.677Z,16.52
2022-10-23T20:31:46.709Z,16.57
2022-10-23T20:34:15.681Z,16.77
2022-10-23T20:36:46.804Z,16.89
2022-10-23T20:39:18.951Z,16.77
2022-10-23T20:41:47.029Z,16.71
2022-10-23T20:46:45.204Z,16.49
2022-10-23T20:49:13.841Z,16.81
2022-10-23T20:51:42.705Z,16.56
2022-10-23T20:54:10.700Z,16.71
2022-10-23T20:56:40.818Z,16.85
2022-10-23T20:59:12.179Z,16.67
2022-10-23T21:01:41.902Z,16.79
2022-10-23T21:04:12.972Z,16.88
2022-10-23T21:07:04.462Z,16.50
2022-10-23T21:09:31.629Z,16.84
2022-10-23T21:12:00.963Z,16.83
2022-10-23T21:14:28.845Z,16.64
2022-10-23T21:16:56.771Z,16.50
2022-10-23T21:19:24.953Z,16.34
2022-10-23T21:21:53.004Z,16.48
2022-10-23T21:24:20.992Z,16.63
2022-10-23T21:26:48.852Z,16.43
2022-10-23T21:29:19.468Z,16.47
2022-10-23T21:31:52.974Z,16.45
2022-10-23T21:34:21.062Z,16.31
2022-10-23T21:37:11.382Z,16.33
2022-10-23T21:39:36.570Z,16.37
2022-10-23T21:42:04.624Z,16.42
2022-10-23T21:44:34.075Z,16.40
2022-10-23T21:47:01.899Z,16.24
2022-10-23T21:49:30.227Z,16.21
2022-10-23T21:51:58.384Z,16.13
2022-10-23T21:54:26.389Z,16.05
2022-10-23T21:56:54.974Z,15.89
2022-10-23T21:59:25.923Z,16.00
2022-10-23T22:01:57.142Z,15.87
2022-10-23T22:04:25.239Z,15.87
2022-10-23T22:06:53.180Z,15.88
2022-10-23T22:09:22.543Z,15.77
2022-10-23T22:11:50.982Z,15.89
2022-10-23T22:14:19.012Z,15.87
2022-10-23T22:16:47.185Z,15.78
2022-10-23T22:19:18.302Z,15.79
2022-10-23T22:21:47.598Z,15.73
2022-10-23T22:24:17.441Z,15.65
2022-10-23T22:26:47.688Z,15.62
2022-10-23T22:29:18.042Z,15.54
2022-10-23T22:31:49.650Z,15.46
2022-10-23T22:34:28.692Z,15.55
2022-10-23T22:37:10.313Z,15.51
2022-10-23T22:39:38.402Z,15.51
2022-10-23T22:42:06.292Z,15.39
2022-10-23T22:44:34.480Z,15.54
2022-10-23T22:47:02.227Z,15.46
2022-10-23T22:49:31.477Z,15.42
2022-10-23T22:51:59.286Z,15.35
2022-10-23T22:54:27.283Z,15.26
2022-10-23T22:56:55.181Z,15.16
2022-10-23T22:59:23.025Z,15.02
2022-10-23T23:01:51.277Z,15.08
2022-10-23T23:07:10.838Z,15.11
2022-10-23T23:09:40.130Z,14.97
2022-10-23T23:12:09.761Z,14.99
2022-10-23T23:14:37.740Z,15.27
2022-10-23T23:17:06.276Z,15.09
2022-10-23T23:19:34.512Z,15.17
2022-10-23T23:22:02.681Z,14.99
2022-10-23T23:24:32.376Z,14.74
2022-10-23T23:27:00.782Z,14.74
2022-10-23T23:29:29.651Z,14.73
2022-10-23T23:31:58.014Z,14.88
2022-10-23T23:34:25.994Z,14.95
2022-10-23T23:36:53.990Z,15.04
2022-10-23T23:39:22.053Z,14.85
2022-10-23T23:41:51.461Z,14.82
2022-10-23T23:44:19.386Z,14.64
2022-10-23T23:46:47.341Z,14.43
2022-10-23T23:49:15.423Z,14.56
2022-10-23T23:51:43.430Z,14.55
2022-10-23T23:54:11.575Z,14.52
2022-10-23T23:56:39.779Z,14.50
2022-10-23T23:59:09.266Z,14.54
